Flight Track Log - Related Links

Times and Time Zones

All times are in EDT time to prevent confusion due to time zone crossing. See the UCA3599 flight status page for this flight to view local times or setup timezone preferences in your user account.

Time Position Orientation Groundspeed Altitude Reporting Facility
EDT Latitude Longitude Course Direction KTS MPH feet Rate Location/Type
Wed 06:32:50 AM 42.1489 -76.0153 213° Southwest 136 157 4,800  Level New York Center
Wed 06:33:50 AM 42.1164 -76.0436 213° Southwest 136 157 6,300 1,300 Climbing New York Center
Wed 06:34:50 AM 42.0839 -76.0772 218° Southwest 141 162 7,400 1,250 Climbing New York Center
Wed 06:35:50 AM 42.0403 -76.1211 217° Southwest 162 186 8,800 1,350 Climbing New York Center
Wed 06:36:50 AM 41.9989 -76.1569 213° Southwest 178 205 10,100 1,200 Climbing New York Center
Wed 06:37:50 AM 41.9564 -76.1786 201° Southwest 178 205 11,200 1,300 Climbing New York Center
Wed 06:38:50 AM 41.9072 -76.2081 204° Southwest 178 205 12,700 1,350 Climbing New York Center
Wed 06:39:50 AM 41.8600 -76.2375 205° Southwest 183 211 13,900 1,150 Climbing New York Center
Wed 06:40:50 AM 41.8150 -76.2672 206° Southwest 183 211 15,000 1,000 Climbing New York Center
Wed 06:41:50 AM 41.7742 -76.2944 206° Southwest 183 211 15,900 500 Climbing New York Center
Wed 06:42:50 AM 41.7208 -76.3206 200° South 189 217 16,000 50 Climbing New York Center
Wed 06:43:50 AM 41.6564 -76.3625 206° Southwest 216 249 16,000  Level New York Center
Wed 06:44:50 AM 41.5983 -76.3992 205° Southwest 239 275 16,000  Level New York Center
Wed 06:45:50 AM 41.5383 -76.4331 203° Southwest 239 275 16,000  Level New York Center
Wed 06:46:51 AM 41.4847 -76.4672 206° Southwest 239 275 16,000  Level New York Center
Wed 06:47:50 AM 41.4183 -76.5058 204° Southwest 244 281 16,000  Level New York Center
Wed 06:48:50 AM 41.3581 -76.5450 206° Southwest 244 281 16,000  Level New York Center
Wed 06:49:50 AM 41.3003 -76.5786 204° Southwest 244 281 16,000  Level New York Center
Wed 06:50:50 AM 41.2444 -76.6125 205° Southwest 249 287 16,000  Level New York Center
Wed 06:51:50 AM 41.1864 -76.6461 204° Southwest 243 280 16,000  Level New York Center
Wed 06:52:50 AM 41.1197 -76.6900 206° Southwest 243 280 16,000  Level New York Center
Wed 06:53:50 AM 41.0594 -76.7261 204° Southwest 243 280 16,000  Level New York Center
Wed 06:54:51 AM 41.0014 -76.7622 205° Southwest 243 280 16,000  Level New York Center
Wed 06:55:50 AM 40.9436 -76.7956 204° Southwest 243 280 16,000  Level New York Center
Wed 06:56:50 AM 40.8853 -76.8317 205° Southwest 243 280 16,000  Level New York Center
Wed 06:57:50 AM 40.8231 -76.8672 203° Southwest 243 280 16,000  Level New York Center
Wed 06:58:50 AM 40.7633 -76.8975 201° Southwest 243 280 16,000  Level New York Center
Wed 06:59:50 AM 40.6956 -76.9161 192° South 243 280 16,000 50 Level New York Center
Wed 07:00:50 AM 40.6319 -76.9350 193° South 243 280 16,100  Climbing New York Center
Wed 07:01:50 AM 40.5664 -76.9564 194° South 243 280 16,000 -50 Descending New York Center
Wed 07:02:50 AM 40.5069 -76.9731 192° South 243 280 16,000  Level New York Center
Wed 07:03:50 AM 40.4350 -76.9964 194° South 243 280 16,000  Level New York Center
Wed 07:04:50 AM 40.3758 -77.0131 192° South 243 280 16,000 -425 Level New York Center
Wed 07:07:22 AM 40.2000 -77.0667 193° South 257 296 14,500 -716 Descending Potomac TRACON
Wed 07:08:28 AM 40.1167 -77.0833 189° South 262 302 13,400 -1,000 Descending Potomac TRACON
Wed 07:09:22 AM 40.0667 -77.1167 207° Southwest 261 300 12,500 -1,000 Descending Potomac TRACON
Wed 07:10:22 AM 39.9833 -77.1333 189° South 259 298 11,500 -1,000 Descending Potomac TRACON
Wed 07:11:22 AM 39.9167 -77.1500 191° South 257 296 10,500 -1,200 Descending Potomac TRACON
Wed 07:12:22 AM 39.8500 -77.1833 201° Southwest 233 268 9,100 -700 Descending Potomac TRACON
Wed 07:13:22 AM 39.8000 -77.2000 194° South 191 220 9,100  Level Potomac TRACON
Wed 07:14:16 AM 39.7500 -77.2167 194° South 198 228 9,100 -53 Level Potomac TRACON
Wed 07:15:16 AM 39.7000 -77.2333 194° South 208 239 9,000 -53 Descending Potomac TRACON
Wed 07:16:10 AM 39.6500 -77.2667 207° Southwest 210 242 9,000  Level Potomac TRACON
Wed 07:17:10 AM 39.6000 -77.2833 194° South 211 243 9,000  Level Potomac TRACON
Wed 07:18:10 AM 39.5333 -77.3000 191° South 212 244 9,000 -300 Level Potomac TRACON
Wed 07:19:10 AM 39.4833 -77.3333 207° Southwest 209 241 8,400 -835 Descending Potomac TRACON
Wed 07:20:05 AM 39.4333 -77.3500 194° South 220 253 7,400 -991 Descending Potomac TRACON
Wed 07:20:59 AM 39.3833 -77.3667 194° South 222 255 6,600 -737 Descending Potomac TRACON
Wed 07:21:59 AM 39.3167 -77.3667 180° South 218 251 6,000 -750 Descending Potomac TRACON
Wed 07:22:59 AM 39.2500 -77.3667 180° South 216 249 5,100 -632 Descending Potomac TRACON
Wed 07:23:53 AM 39.2000 -77.3667 180° South 208 239 4,800 -579 Descending Potomac TRACON
Wed 07:24:53 AM 39.1500 -77.3500 166° South 219 252 4,000 -421 Descending Potomac TRACON
Wed 07:25:47 AM 39.0833 -77.3667 191° South 213 245 4,000  Level Potomac TRACON
Wed 07:26:47 AM 39.0333 -77.3500 165° South 213 245 4,000  Level Potomac TRACON
Wed 07:27:41 AM 38.9833 -77.3500 180° South 212 244 4,000 -526 Level Potomac TRACON
Wed 07:28:41 AM 38.9167 -77.3500 180° South 210 242 3,000 -950 Descending Potomac TRACON
Wed 07:29:41 AM 38.8667 -77.3667 195° South 220 253 2,100 -500 Descending Potomac TRACON
Wed 07:30:41 AM 38.8167 -77.3667 180° South 166 191 2,000 -50 Descending Potomac TRACON
Wed 07:31:41 AM 38.7667 -77.3667 180° South 165 190 2,000  Level Potomac TRACON
Wed 07:32:41 AM 38.7333 -77.3833 201° Southwest 188 216 2,000  Level Potomac TRACON
Wed 07:33:41 AM 38.7833 -77.4333 322° Northwest 191 220 2,000  Level Potomac TRACON
Wed 07:34:35 AM 38.8167 -77.4333 360° North 182 209 2,000 -211 Level Potomac TRACON
Wed 07:35:35 AM 38.8667 -77.4333 360° North 141 162 1,600 -550 Descending Potomac TRACON
Wed 07:36:35 AM 38.9000 -77.4333 360° North 105 121 900 -700 Descending Potomac TRACON

Login

Don't have an account? Register now (free) for customized features, flight alerts, and more!